createdAt,value
2022-10-20T00:01:30.701Z,17.24
2022-10-20T00:03:57.046Z,17.21
2022-10-20T00:06:23.357Z,17.20
2022-10-20T00:08:49.777Z,17.21
2022-10-20T00:11:16.055Z,17.20
2022-10-20T00:13:42.394Z,17.19
2022-10-20T00:16:08.717Z,17.14
2022-10-20T00:18:35.068Z,17.11
2022-10-20T00:21:01.401Z,17.10
2022-10-20T00:23:27.744Z,17.12
2022-10-20T00:25:54.080Z,17.14
2022-10-20T00:28:20.405Z,17.14
2022-10-20T00:30:46.765Z,17.13
2022-10-20T00:33:13.106Z,17.12
2022-10-20T00:35:39.420Z,17.08
2022-10-20T00:38:05.844Z,17.05
2022-10-20T00:40:32.114Z,17.06
2022-10-20T00:42:58.436Z,17.04
2022-10-20T00:45:24.790Z,17.01
2022-10-20T00:47:51.134Z,16.97
2022-10-20T00:50:17.450Z,16.99
2022-10-20T00:52:43.775Z,16.97
2022-10-20T00:55:10.115Z,16.98
2022-10-20T00:57:36.660Z,16.99
2022-10-20T01:00:02.781Z,16.99
2022-10-20T01:02:29.098Z,16.98
2022-10-20T01:04:55.416Z,16.96
2022-10-20T01:07:21.776Z,16.95
2022-10-20T01:09:48.115Z,16.94
2022-10-20T01:12:14.458Z,16.95
2022-10-20T01:14:40.813Z,16.91
2022-10-20T01:17:07.147Z,16.88
2022-10-20T01:19:33.492Z,16.86
2022-10-20T01:21:59.861Z,16.85
2022-10-20T01:24:26.199Z,16.85
2022-10-20T01:26:52.540Z,16.85
2022-10-20T01:29:18.873Z,16.85
2022-10-20T01:31:45.196Z,16.83
2022-10-20T01:34:11.516Z,16.81
2022-10-20T01:36:37.872Z,16.83
2022-10-20T01:39:04.206Z,16.82
2022-10-20T01:41:30.528Z,16.80
2022-10-20T01:43:56.890Z,16.79
2022-10-20T01:46:23.210Z,16.79
2022-10-20T01:48:49.550Z,16.77
2022-10-20T01:51:15.878Z,16.77
2022-10-20T01:53:42.218Z,16.70
2022-10-20T01:56:08.575Z,16.65
2022-10-20T01:58:34.910Z,16.67
2022-10-20T02:01:01.260Z,16.69
2022-10-20T02:03:27.604Z,16.68
2022-10-20T02:05:53.929Z,16.69
2022-10-20T02:08:20.267Z,16.68
2022-10-20T02:10:46.587Z,16.67
2022-10-20T02:13:12.901Z,16.62
2022-10-20T02:15:39.225Z,16.57
2022-10-20T02:18:05.547Z,16.54
2022-10-20T02:20:31.872Z,16.49
2022-10-20T02:22:58.191Z,16.45
2022-10-20T02:25:24.519Z,16.45
2022-10-20T02:27:50.935Z,16.41
2022-10-20T02:30:17.221Z,16.37
2022-10-20T02:32:43.536Z,16.38
2022-10-20T02:35:09.919Z,16.34
2022-10-20T02:37:36.452Z,16.32
2022-10-20T02:40:02.574Z,16.30
2022-10-20T02:42:28.891Z,16.27
2022-10-20T02:44:55.256Z,16.23
2022-10-20T02:47:21.581Z,16.19
2022-10-20T02:49:47.906Z,16.14
2022-10-20T02:52:14.288Z,16.12
2022-10-20T02:54:40.598Z,16.10
2022-10-20T02:57:06.939Z,16.08
2022-10-20T02:59:33.284Z,16.07
2022-10-20T03:01:59.673Z,16.01
2022-10-20T03:06:52.261Z,15.92
2022-10-20T03:09:18.583Z,15.85
2022-10-20T03:11:44.897Z,15.79
2022-10-20T03:14:11.261Z,15.79
2022-10-20T03:16:37.592Z,15.78
2022-10-20T03:19:07.150Z,15.78
2022-10-20T03:21:30.298Z,15.77
2022-10-20T03:23:56.617Z,15.78
2022-10-20T03:26:22.936Z,15.76
2022-10-20T03:28:49.287Z,15.73
2022-10-20T03:31:15.651Z,15.70
2022-10-20T03:33:41.995Z,15.66
2022-10-20T03:36:08.307Z,15.60
2022-10-20T03:38:34.655Z,15.58
2022-10-20T03:43:27.334Z,15.51
2022-10-20T03:45:53.670Z,15.52
2022-10-20T03:48:20.032Z,15.48
2022-10-20T03:50:46.342Z,15.49
2022-10-20T03:53:12.669Z,15.47
2022-10-20T03:55:39.025Z,15.46
2022-10-20T03:58:05.369Z,15.43
2022-10-20T04:00:31.708Z,15.41
2022-10-20T04:02:58.057Z,15.36
2022-10-20T04:05:24.392Z,15.30
2022-10-20T04:07:50.733Z,15.26
2022-10-20T04:10:17.064Z,15.25
2022-10-20T04:12:43.417Z,15.22
2022-10-20T04:15:09.749Z,15.21
2022-10-20T04:17:36.143Z,15.19
2022-10-20T04:20:02.417Z,15.18
2022-10-20T04:22:28.757Z,15.13
2022-10-20T04:24:55.111Z,15.11
2022-10-20T04:27:21.666Z,14.99
2022-10-20T04:29:47.979Z,14.90
2022-10-20T04:32:14.313Z,14.86
2022-10-20T04:34:40.663Z,14.92
2022-10-20T04:37:06.980Z,15.01
2022-10-20T04:39:33.334Z,15.05
2022-10-20T04:41:59.671Z,14.97
2022-10-20T04:44:25.992Z,14.90
2022-10-20T04:46:52.336Z,14.88
2022-10-20T04:49:18.654Z,14.86
2022-10-20T04:51:44.995Z,14.86
2022-10-20T04:54:11.335Z,14.87
2022-10-20T04:56:37.652Z,14.87
2022-10-20T04:59:04.010Z,14.91
2022-10-20T05:01:30.358Z,14.95
2022-10-20T05:03:56.673Z,14.94
2022-10-20T05:06:22.990Z,14.94
2022-10-20T05:08:49.397Z,14.96
2022-10-20T05:11:15.654Z,15.03
2022-10-20T05:13:41.975Z,15.11
2022-10-20T05:16:08.294Z,15.19
2022-10-20T05:18:34.662Z,15.27
2022-10-20T05:21:09.667Z,15.39
2022-10-20T05:23:27.339Z,15.50
2022-10-20T05:25:53.655Z,15.58
2022-10-20T05:28:20.012Z,15.66
2022-10-20T05:30:46.489Z,15.77
2022-10-20T05:33:12.840Z,15.93
2022-10-20T05:35:39.158Z,16.07
2022-10-20T05:38:05.488Z,16.18
2022-10-20T05:40:31.827Z,16.28
2022-10-20T05:42:58.186Z,16.31
2022-10-20T05:45:24.528Z,16.25
2022-10-20T05:47:50.883Z,16.31
2022-10-20T05:50:17.409Z,16.48
2022-10-20T05:52:43.765Z,16.64
2022-10-20T05:55:10.086Z,16.82
2022-10-20T05:57:36.440Z,17.01
2022-10-20T06:00:02.771Z,17.17
2022-10-20T06:02:29.091Z,17.32
2022-10-20T06:04:55.420Z,17.51
2022-10-20T06:07:21.771Z,17.72
2022-10-20T06:09:48.110Z,17.93
2022-10-20T06:12:14.433Z,18.07
2022-10-20T06:14:40.768Z,18.26
2022-10-20T06:17:07.096Z,18.48
2022-10-20T06:19:33.419Z,18.65
2022-10-20T06:22:03.865Z,18.83
2022-10-20T06:24:26.220Z,19.05
2022-10-20T06:26:52.569Z,19.26
2022-10-20T06:29:18.896Z,19.40
2022-10-20T06:31:45.217Z,19.58
2022-10-20T06:34:11.560Z,19.78
2022-10-20T06:36:37.924Z,19.98
2022-10-20T06:39:04.260Z,20.18
2022-10-20T06:41:30.582Z,20.43
2022-10-20T06:43:56.949Z,20.65
2022-10-20T06:46:23.271Z,20.83
2022-10-20T06:48:49.612Z,21.06
2022-10-20T06:51:15.959Z,21.26
2022-10-20T06:53:45.718Z,21.38
2022-10-20T06:56:08.652Z,21.44
2022-10-20T06:58:34.987Z,21.54
2022-10-20T07:01:02.596Z,21.51
2022-10-20T07:03:27.683Z,21.64
2022-10-20T07:05:54.003Z,21.75
2022-10-20T07:08:20.321Z,21.91
2022-10-20T07:10:46.666Z,21.86
2022-10-20T07:13:13.005Z,21.81
2022-10-20T07:15:39.328Z,21.90
2022-10-20T07:18:05.687Z,21.91
2022-10-20T07:20:32.005Z,21.76
2022-10-20T07:22:58.357Z,21.63
2022-10-20T07:25:24.749Z,21.43
2022-10-20T07:27:51.082Z,21.43
2022-10-20T07:30:17.416Z,21.57
2022-10-20T07:32:43.778Z,21.55
2022-10-20T07:35:10.124Z,21.61
2022-10-20T07:37:36.817Z,21.85
2022-10-20T07:40:02.766Z,22.15
2022-10-20T07:42:29.082Z,22.50
2022-10-20T07:44:55.422Z,22.79
2022-10-20T07:47:21.806Z,23.02
2022-10-20T07:49:48.128Z,23.26
2022-10-20T07:52:14.500Z,23.49
2022-10-20T07:54:40.823Z,23.67
2022-10-20T07:57:07.191Z,23.84
2022-10-20T07:59:33.539Z,24.00
2022-10-20T08:02:00.368Z,24.21
2022-10-20T08:04:26.211Z,24.35
2022-10-20T08:06:52.551Z,24.44
2022-10-20T08:09:18.897Z,24.35
2022-10-20T08:11:45.216Z,24.37
2022-10-20T08:14:11.563Z,24.49
2022-10-20T08:16:43.964Z,24.61
2022-10-20T08:21:53.104Z,25.09
2022-10-20T08:24:19.438Z,25.36
2022-10-20T08:26:45.776Z,25.54
2022-10-20T08:29:12.100Z,25.71
2022-10-20T08:31:38.476Z,25.85
2022-10-20T08:34:04.800Z,26.07
2022-10-20T08:36:31.139Z,26.29
2022-10-20T08:39:00.680Z,26.51
2022-10-20T08:41:23.807Z,26.75
2022-10-20T08:43:50.172Z,26.94
2022-10-20T08:46:16.514Z,27.07
2022-10-20T08:48:42.826Z,27.21
2022-10-20T08:51:09.163Z,27.38
2022-10-20T08:53:35.551Z,27.58
2022-10-20T08:56:01.891Z,27.70
2022-10-20T08:58:28.232Z,27.81
2022-10-20T09:00:54.608Z,27.93
2022-10-20T09:03:20.949Z,28.02
2022-10-20T09:05:47.270Z,28.16
2022-10-20T09:08:13.599Z,28.37
2022-10-20T09:10:39.921Z,28.60
2022-10-20T09:13:06.268Z,28.75
2022-10-20T09:15:32.585Z,28.88
2022-10-20T09:17:58.911Z,28.97
2022-10-20T09:20:25.227Z,29.10
2022-10-20T09:22:51.577Z,29.21
2022-10-20T09:25:17.920Z,29.28
2022-10-20T09:27:44.283Z,29.40
2022-10-20T09:30:10.599Z,29.45
2022-10-20T09:32:52.396Z,29.46
2022-10-20T09:35:03.303Z,29.54
2022-10-20T09:37:29.644Z,29.73
2022-10-20T09:39:56.112Z,29.84
2022-10-20T09:42:22.319Z,29.96
2022-10-20T09:44:48.640Z,30.02
2022-10-20T09:47:14.984Z,30.12
2022-10-20T09:49:41.353Z,30.23
2022-10-20T09:52:07.678Z,30.32
2022-10-20T09:54:34.021Z,30.50
2022-10-20T09:57:00.345Z,30.48
2022-10-20T09:59:26.679Z,30.55
2022-10-20T10:01:53.007Z,30.78
2022-10-20T10:04:19.367Z,30.82
2022-10-20T10:06:45.686Z,30.75
2022-10-20T10:09:12.150Z,30.75
2022-10-20T10:11:38.337Z,30.86
2022-10-20T10:14:04.675Z,30.98
2022-10-20T10:16:31.021Z,31.00
2022-10-20T10:18:57.341Z,31.10
2022-10-20T10:21:23.686Z,31.23
2022-10-20T10:23:49.998Z,31.22
2022-10-20T10:26:16.373Z,31.27
2022-10-20T10:28:42.710Z,31.29
2022-10-20T10:31:09.029Z,31.24
2022-10-20T10:33:35.355Z,31.26
2022-10-20T10:36:01.708Z,31.32
2022-10-20T10:38:28.029Z,31.38
2022-10-20T10:40:54.380Z,31.41
2022-10-20T10:43:20.718Z,31.43
2022-10-20T10:45:47.067Z,31.41
2022-10-20T10:48:13.406Z,31.24
2022-10-20T10:50:39.732Z,31.26
2022-10-20T10:55:48.810Z,31.16
2022-10-20T10:58:07.792Z,31.28
2022-10-20T11:00:34.129Z,31.37
2022-10-20T11:03:00.448Z,31.43
2022-10-20T11:05:26.766Z,31.45
2022-10-20T11:07:53.111Z,31.49
2022-10-20T11:10:19.484Z,31.55
2022-10-20T11:12:45.828Z,31.59
2022-10-20T11:15:12.143Z,31.58
2022-10-20T11:17:38.694Z,31.63
2022-10-20T11:20:04.832Z,31.57
2022-10-20T11:22:31.155Z,31.56
2022-10-20T11:24:57.529Z,31.51
2022-10-20T11:27:23.881Z,31.40
2022-10-20T11:29:50.188Z,31.30
2022-10-20T11:32:16.575Z,31.31
2022-10-20T11:34:42.884Z,31.32
2022-10-20T11:37:09.207Z,31.23
2022-10-20T11:39:35.561Z,31.10
2022-10-20T11:42:01.908Z,30.96
2022-10-20T11:44:28.228Z,30.95
2022-10-20T11:46:54.610Z,30.98
2022-10-20T11:49:20.945Z,31.00
2022-10-20T11:51:47.265Z,30.98
2022-10-20T11:54:13.643Z,30.96
2022-10-20T11:56:39.987Z,30.97
2022-10-20T11:59:06.304Z,30.97
2022-10-20T12:01:32.706Z,30.92
2022-10-20T12:03:58.977Z,30.79
2022-10-20T12:06:25.300Z,30.70
2022-10-20T12:08:51.667Z,30.69
2022-10-20T12:11:17.990Z,30.70
2022-10-20T12:13:44.308Z,30.63
2022-10-20T12:16:10.651Z,30.51
2022-10-20T12:18:36.969Z,30.43
2022-10-20T12:21:03.315Z,30.38
2022-10-20T12:23:29.654Z,30.36
2022-10-20T12:25:56.018Z,30.41
2022-10-20T12:28:22.393Z,30.31
2022-10-20T12:30:48.740Z,30.24
2022-10-20T12:33:15.052Z,30.17
2022-10-20T12:35:41.378Z,30.10
2022-10-20T12:38:07.720Z,30.00
2022-10-20T12:40:34.077Z,29.95
2022-10-20T12:43:00.395Z,29.95
2022-10-20T12:45:26.741Z,29.91
2022-10-20T12:47:53.064Z,29.93
2022-10-20T12:50:19.398Z,29.75
2022-10-20T12:52:45.718Z,29.59
2022-10-20T12:55:12.062Z,29.44
2022-10-20T12:57:38.685Z,29.35
2022-10-20T13:00:04.791Z,29.24
2022-10-20T13:02:31.129Z,29.18
2022-10-20T13:04:57.475Z,29.10
2022-10-20T13:07:23.831Z,29.05
2022-10-20T13:09:50.187Z,29.03
2022-10-20T13:12:16.507Z,28.93
2022-10-20T13:14:42.909Z,28.74
2022-10-20T13:17:09.305Z,28.53
2022-10-20T13:19:35.618Z,28.41
2022-10-20T13:22:01.956Z,28.30
2022-10-20T13:24:28.319Z,28.07
2022-10-20T13:26:54.657Z,27.92
2022-10-20T13:29:20.973Z,27.80
2022-10-20T13:31:47.354Z,27.59
2022-10-20T13:34:13.702Z,27.37
2022-10-20T13:36:40.043Z,27.19
2022-10-20T13:39:06.385Z,27.07
2022-10-20T13:41:32.706Z,26.97
2022-10-20T13:44:00.825Z,26.78
2022-10-20T13:46:25.405Z,26.62
2022-10-20T13:48:51.726Z,26.45
2022-10-20T13:51:20.498Z,26.23
2022-10-20T13:53:44.396Z,26.06
2022-10-20T13:56:10.737Z,25.93
2022-10-20T13:58:37.098Z,25.79
2022-10-20T14:01:03.497Z,25.65
2022-10-20T14:03:29.755Z,25.50
2022-10-20T14:05:56.094Z,25.39
2022-10-20T14:08:23.547Z,25.26
2022-10-20T14:10:48.791Z,25.12
2022-10-20T14:13:15.114Z,25.03
2022-10-20T14:15:41.452Z,24.95
2022-10-20T14:18:07.776Z,24.85
2022-10-20T14:20:34.117Z,24.72
2022-10-20T14:23:00.439Z,24.59
2022-10-20T14:25:26.779Z,24.49
2022-10-20T14:27:53.121Z,24.43
2022-10-20T14:30:19.489Z,24.34
2022-10-20T14:32:45.813Z,24.23
2022-10-20T14:35:12.136Z,24.07
2022-10-20T14:37:38.856Z,23.96
2022-10-20T14:40:04.888Z,23.86
2022-10-20T14:42:31.191Z,23.78
2022-10-20T14:44:57.516Z,23.70
2022-10-20T14:47:23.858Z,23.60
2022-10-20T14:49:52.299Z,23.48
2022-10-20T14:52:20.373Z,23.40
2022-10-20T14:54:42.919Z,23.33
2022-10-20T14:57:09.261Z,23.25
2022-10-20T14:59:35.606Z,23.21
2022-10-20T15:02:01.942Z,23.15
2022-10-20T15:04:30.063Z,23.12
2022-10-20T15:06:54.699Z,23.04
2022-10-20T15:09:21.059Z,22.94
2022-10-20T15:11:47.349Z,22.86
2022-10-20T15:14:13.671Z,22.80
2022-10-20T15:16:40.016Z,22.75
2022-10-20T15:19:06.339Z,22.66
2022-10-20T15:21:32.683Z,22.59
2022-10-20T15:23:59.041Z,22.50
2022-10-20T15:26:25.379Z,22.42
2022-10-20T15:28:51.702Z,22.37
2022-10-20T15:31:18.052Z,22.30
2022-10-20T15:33:44.399Z,22.26
2022-10-20T15:36:10.711Z,22.20
2022-10-20T15:38:37.038Z,22.13
2022-10-20T15:41:03.369Z,22.09
2022-10-20T15:43:29.705Z,22.04
2022-10-20T15:45:56.061Z,22.00
2022-10-20T15:48:22.382Z,21.93
2022-10-20T15:50:48.744Z,21.87
2022-10-20T15:53:15.114Z,21.80
2022-10-20T15:55:41.449Z,21.78
2022-10-20T15:58:07.770Z,21.73
2022-10-20T16:00:34.151Z,21.72
2022-10-20T16:03:00.464Z,21.62
2022-10-20T16:05:26.783Z,21.52
2022-10-20T16:07:53.115Z,21.47
2022-10-20T16:10:19.449Z,21.42
2022-10-20T16:12:45.829Z,21.35
2022-10-20T16:15:12.173Z,21.27
2022-10-20T16:17:38.555Z,21.14
2022-10-20T16:20:04.831Z,21.01
2022-10-20T16:22:31.172Z,20.95
2022-10-20T16:24:57.537Z,20.95
2022-10-20T16:27:23.866Z,20.94
2022-10-20T16:29:50.186Z,20.90
2022-10-20T16:32:17.702Z,20.85
2022-10-20T16:34:44.021Z,20.82
2022-10-20T16:37:10.369Z,20.79
2022-10-20T16:39:36.715Z,20.72
2022-10-20T16:42:03.072Z,20.68
2022-10-20T16:44:29.415Z,20.61
2022-10-20T16:46:55.740Z,20.52
2022-10-20T16:49:22.119Z,20.49
2022-10-20T16:51:48.463Z,20.52
2022-10-20T16:54:14.791Z,20.46
2022-10-20T16:56:41.154Z,20.33
2022-10-20T16:59:07.439Z,20.29
2022-10-20T17:01:33.819Z,20.29
2022-10-20T17:04:00.169Z,20.20
2022-10-20T17:06:26.489Z,20.21
2022-10-20T17:08:52.889Z,20.22
2022-10-20T17:11:19.208Z,20.04
2022-10-20T17:13:45.532Z,19.93
2022-10-20T17:16:11.858Z,19.81
2022-10-20T17:18:38.212Z,19.76
2022-10-20T17:21:04.535Z,19.69
2022-10-20T17:23:30.902Z,19.63
2022-10-20T17:25:57.313Z,19.54
2022-10-20T17:28:23.629Z,19.46
2022-10-20T17:30:49.950Z,19.38
2022-10-20T17:33:16.285Z,19.32
2022-10-20T17:35:42.616Z,19.27
2022-10-20T17:38:08.939Z,19.23
2022-10-20T17:40:35.299Z,19.21
2022-10-20T17:43:01.705Z,19.18
2022-10-20T17:45:28.043Z,19.12
2022-10-20T17:47:54.382Z,19.07
2022-10-20T17:50:20.728Z,19.01
2022-10-20T17:52:47.091Z,18.99
2022-10-20T17:55:13.435Z,18.97
2022-10-20T17:57:39.795Z,18.91
2022-10-20T18:00:11.084Z,18.83
2022-10-20T18:02:32.498Z,18.76
2022-10-20T18:04:58.824Z,18.69
2022-10-20T18:07:25.199Z,18.63
2022-10-20T18:09:51.555Z,18.62
2022-10-20T18:12:17.897Z,18.60
2022-10-20T18:14:44.243Z,18.59
2022-10-20T18:17:10.606Z,18.60
2022-10-20T18:19:37.367Z,18.59
2022-10-20T18:22:03.687Z,18.56
2022-10-20T18:24:30.025Z,18.47
2022-10-20T18:26:56.356Z,18.37
2022-10-20T18:29:22.705Z,18.31
2022-10-20T18:31:49.025Z,18.34
2022-10-20T18:34:15.372Z,18.42
2022-10-20T18:36:45.009Z,18.36
2022-10-20T18:39:08.054Z,18.29
2022-10-20T18:41:34.417Z,18.19
2022-10-20T18:44:00.762Z,18.12
2022-10-20T18:46:27.084Z,18.13
2022-10-20T18:48:53.451Z,18.08
2022-10-20T18:51:19.798Z,18.01
2022-10-20T18:53:46.192Z,18.06
2022-10-20T18:56:12.488Z,18.02
2022-10-20T18:58:38.841Z,17.93
2022-10-20T19:01:05.204Z,17.83
2022-10-20T19:03:31.537Z,17.85
2022-10-20T19:05:57.854Z,17.85
2022-10-20T19:08:24.185Z,17.80
2022-10-20T19:10:50.509Z,17.76
2022-10-20T19:13:16.885Z,17.84
2022-10-20T19:15:43.223Z,17.83
2022-10-20T19:18:09.548Z,17.78
2022-10-20T19:20:35.889Z,17.64
2022-10-20T19:23:02.209Z,17.53
2022-10-20T19:25:28.531Z,17.42
2022-10-20T19:27:54.892Z,17.39
2022-10-20T19:30:21.218Z,17.40
2022-10-20T19:32:47.845Z,17.39
2022-10-20T19:35:13.900Z,17.46
2022-10-20T19:37:40.224Z,17.51
2022-10-20T19:40:06.555Z,17.52
2022-10-20T19:42:32.964Z,17.55
2022-10-20T19:44:59.280Z,17.46
2022-10-20T19:47:25.607Z,17.29
2022-10-20T19:49:51.952Z,17.24
2022-10-20T19:52:18.280Z,17.16
2022-10-20T19:54:44.666Z,17.07
2022-10-20T19:57:10.981Z,16.93
2022-10-20T19:59:37.322Z,16.81
2022-10-20T20:02:03.705Z,16.74
2022-10-20T20:04:30.044Z,16.67
2022-10-20T20:07:01.704Z,16.69
2022-10-20T20:09:22.726Z,16.71
2022-10-20T20:11:49.147Z,16.82
2022-10-20T20:14:15.453Z,16.79
2022-10-20T20:16:41.946Z,16.75
2022-10-20T20:19:08.274Z,16.61
2022-10-20T20:21:34.623Z,16.55
2022-10-20T20:24:01.440Z,16.56
2022-10-20T20:26:27.282Z,16.54
2022-10-20T20:28:53.625Z,16.49
2022-10-20T20:31:20.000Z,16.42
2022-10-20T20:33:46.347Z,16.34
2022-10-20T20:36:12.644Z,16.29
2022-10-20T20:38:39.021Z,16.23
2022-10-20T20:41:05.394Z,16.17
2022-10-20T20:43:31.755Z,16.12
2022-10-20T20:45:58.026Z,16.02
2022-10-20T20:48:24.344Z,15.95
2022-10-20T20:50:50.704Z,15.97
2022-10-20T20:53:17.054Z,15.96
2022-10-20T20:55:43.418Z,15.87
2022-10-20T20:58:09.745Z,15.78
2022-10-20T21:00:36.070Z,15.69
2022-10-20T21:03:02.399Z,15.63
2022-10-20T21:05:28.728Z,15.59
2022-10-20T21:07:55.087Z,15.53
2022-10-20T21:10:21.409Z,15.48
2022-10-20T21:12:47.751Z,15.45
2022-10-20T21:15:14.099Z,15.42
2022-10-20T21:17:40.415Z,15.38
2022-10-20T21:20:06.762Z,15.34
2022-10-20T21:22:33.088Z,15.28
2022-10-20T21:24:59.461Z,15.26
2022-10-20T21:27:25.785Z,15.28
2022-10-20T21:29:52.107Z,15.27
2022-10-20T21:32:18.455Z,15.21
2022-10-20T21:34:44.825Z,15.14
2022-10-20T21:37:11.159Z,15.20
2022-10-20T21:39:37.509Z,15.08
2022-10-20T21:42:03.805Z,15.00
2022-10-20T21:44:30.125Z,14.94
2022-10-20T21:46:56.453Z,14.99
2022-10-20T21:49:22.797Z,14.97
2022-10-20T21:51:49.141Z,14.92
2022-10-20T21:54:15.532Z,14.84
2022-10-20T21:56:41.815Z,14.73
2022-10-20T21:59:08.164Z,14.70
2022-10-20T22:01:34.611Z,14.74
2022-10-20T22:04:00.918Z,14.67
2022-10-20T22:06:27.257Z,14.66
2022-10-20T22:08:53.651Z,14.70
2022-10-20T22:11:19.936Z,14.58
2022-10-20T22:13:46.277Z,14.56
2022-10-20T22:16:12.602Z,14.55
2022-10-20T22:18:38.951Z,14.53
2022-10-20T22:21:07.608Z,14.55
2022-10-20T22:23:31.611Z,14.53
2022-10-20T22:25:57.936Z,14.41
2022-10-20T22:28:24.259Z,14.40
2022-10-20T22:30:50.668Z,14.29
2022-10-20T22:33:16.964Z,14.20
2022-10-20T22:35:43.305Z,14.32
2022-10-20T22:38:09.627Z,14.34
2022-10-20T22:40:35.949Z,14.22
2022-10-20T22:43:02.357Z,14.13
2022-10-20T22:45:28.677Z,14.06
2022-10-20T22:47:55.015Z,13.98
2022-10-20T22:50:21.373Z,13.87
2022-10-20T22:52:47.698Z,13.77
2022-10-20T22:55:14.014Z,13.71
2022-10-20T22:57:40.331Z,13.64
2022-10-20T23:00:06.737Z,13.60
2022-10-20T23:02:33.003Z,13.60
2022-10-20T23:04:59.352Z,13.56
2022-10-20T23:07:25.661Z,13.58
2022-10-20T23:09:51.975Z,13.55
2022-10-20T23:12:18.314Z,13.50
2022-10-20T23:14:44.624Z,13.38
2022-10-20T23:17:10.944Z,13.33
2022-10-20T23:19:37.293Z,13.29
2022-10-20T23:22:03.656Z,13.28
2022-10-20T23:24:29.990Z,13.26
2022-10-20T23:26:56.371Z,13.22
2022-10-20T23:29:22.700Z,13.19
2022-10-20T23:31:49.048Z,13.18
2022-10-20T23:34:15.357Z,13.20
2022-10-20T23:36:41.690Z,13.31
2022-10-20T23:39:08.008Z,13.38
2022-10-20T23:41:34.340Z,13.36
2022-10-20T23:44:00.733Z,13.33
2022-10-20T23:46:27.055Z,13.23
2022-10-20T23:48:53.370Z,13.15
2022-10-20T23:51:19.726Z,13.06
2022-10-20T23:53:46.042Z,12.99
2022-10-20T23:56:12.381Z,12.94
2022-10-20T23:58:38.723Z,12.91
